Time;durP1;ratioP1;P1;durP2;ratioP2;P2;SDS_P1;SDS_P2;PMS_P1;PMS_P2;Temp;Humidity;BMP_temperature;BMP_pressure;BME280_temperature;BME280_humidity;BME280_pressure;Samples;Min_cycle;Max_cycle;Signal;HPM_P1;HPM_P2
2023/10/09 00:02:29;0.00;0.00;0.62;0.00;0.00;0.62;3.50;1.80;;;26.50;28.20;;;;;;2265620;61;20438;-65
2023/10/09 00:05:23;0.00;0.00;0.62;0.00;0.00;0.62;3.20;1.40;;;26.50;28.20;;;;;;2269204;61;20359;-65
2023/10/09 00:08:09;0.00;0.00;0.62;0.00;0.00;0.62;2.87;1.47;;;26.50;28.20;;;;;;2265678;61;20371;-65
2023/10/09 00:10:53;0.00;0.00;0.62;0.00;0.00;0.62;2.00;1.47;;;26.50;28.20;;;;;;2268822;61;20387;-66
2023/10/09 00:13:48;0.00;0.00;0.62;0.00;0.00;0.62;1.70;1.17;;;26.50;28.20;;;;;;2265695;61;20895;-66
2023/10/09 00:16:33;0.00;0.00;0.62;0.00;0.00;0.62;1.70;0.97;;;26.50;28.20;;;;;;2268751;61;20359;-65
2023/10/09 00:19:20;0.00;0.00;0.62;0.00;0.00;0.62;2.17;1.40;;;26.50;28.20;;;;;;2268308;61;20367;-66
2023/10/09 00:22:11;0.00;0.00;0.62;0.00;0.00;0.62;1.80;1.17;;;26.50;28.20;;;;;;2268468;61;20395;-66
2023/10/09 00:25:36;0.00;0.00;0.62;0.00;0.00;0.62;2.10;1.47;;;26.50;28.20;;;;;;2268644;61;20390;-66
2023/10/09 00:28:18;0.00;0.00;0.62;0.00;0.00;0.62;2.23;1.63;;;26.50;28.20;;;;;;2268539;61;20417;-64
2023/10/09 00:31:06;0.00;0.00;0.62;0.00;0.00;0.62;2.50;1.33;;;26.50;28.20;;;;;;2268769;61;20418;-65
2023/10/09 00:33:52;0.00;0.00;0.62;0.00;0.00;0.62;3.50;1.43;;;26.40;28.20;;;;;;2269197;61;20375;-66
2023/10/09 00:36:50;0.00;0.00;0.62;0.00;0.00;0.62;2.27;1.20;;;26.40;28.20;;;;;;2268431;61;20401;-65
2023/10/09 00:39:43;0.00;0.00;0.62;0.00;0.00;0.62;2.70;1.40;;;26.40;28.20;;;;;;2268483;61;21033;-65
2023/10/09 00:42:34;0.00;0.00;0.62;0.00;0.00;0.62;1.93;1.20;;;26.40;28.20;;;;;;2268391;61;20429;-65
2023/10/09 00:45:27;0.00;0.00;0.62;0.00;0.00;0.62;2.37;1.50;;;26.40;28.20;;;;;;2268384;61;20433;-66
2023/10/09 00:48:23;0.00;0.00;0.62;0.00;0.00;0.62;3.60;1.30;;;26.40;28.20;;;;;;2268426;61;20398;-66
2023/10/09 00:51:16;0.00;0.00;0.62;0.00;0.00;0.62;2.47;1.20;;;26.40;28.20;;;;;;2268488;61;20391;-64
2023/10/09 00:54:14;0.00;0.00;0.62;0.00;0.00;0.62;1.87;1.23;;;26.40;28.10;;;;;;2268544;61;20913;-65
2023/10/09 00:57:06;0.00;0.00;0.62;0.00;0.00;0.62;2.50;1.30;;;26.40;28.10;;;;;;2268604;61;20368;-65
2023/10/09 00:59:59;0.00;0.00;0.62;0.00;0.00;0.62;1.87;1.03;;;26.40;28.10;;;;;;2268619;61;20367;-64
2023/10/09 01:02:44;0.00;0.00;0.62;0.00;0.00;0.62;2.00;1.40;;;26.40;28.20;;;;;;2268764;61;20981;-64
2023/10/09 01:05:29;0.00;0.00;0.62;0.00;0.00;0.62;3.03;1.63;;;26.40;28.10;;;;;;2268297;61;20469;-66
2023/10/09 01:08:24;0.00;0.00;0.62;0.00;0.00;0.62;2.00;1.00;;;26.40;28.10;;;;;;2268320;61;20452;-66
2023/10/09 01:11:19;0.00;0.00;0.62;0.00;0.00;0.62;2.33;1.60;;;26.40;28.10;;;;;;2268757;61;20378;-65
2023/10/09 01:16:54;0.00;0.00;0.62;0.00;0.00;0.62;1.77;1.13;;;26.40;28.10;;;;;;2268445;61;20363;-65
2023/10/09 01:19:38;0.00;0.00;0.62;0.00;0.00;0.62;1.80;1.10;;;26.40;28.10;;;;;;2267869;61;20359;-65
2023/10/09 01:22:23;0.00;0.00;0.62;0.00;0.00;0.62;2.00;1.30;;;26.30;28.10;;;;;;2268542;61;20433;-66
2023/10/09 01:25:10;0.00;0.00;0.62;0.00;0.00;0.62;1.70;1.00;;;26.30;28.10;;;;;;2268423;61;20472;-66
2023/10/09 01:27:56;0.00;0.00;0.62;0.00;0.00;0.62;3.30;1.47;;;26.30;28.10;;;;;;2268122;61;20383;-65
2023/10/09 01:30:43;0.00;0.00;0.62;0.00;0.00;0.62;2.00;1.27;;;26.30;28.10;;;;;;2302688;57;20461;-67
2023/10/09 01:33:28;0.00;0.00;0.62;0.00;0.00;0.62;2.40;1.20;;;26.30;28.10;;;;;;2301763;57;20367;-66
2023/10/09 01:36:15;0.00;0.00;0.62;0.00;0.00;0.62;2.27;1.50;;;26.40;28.20;;;;;;2702154;45;20348;-66
2023/10/09 01:39:07;0.00;0.00;0.62;0.00;0.00;0.62;2.83;1.30;;;26.40;28.20;;;;;;2264784;61;20772;-65
2023/10/09 01:42:05;0.00;0.00;0.62;0.00;0.00;0.62;2.20;1.30;;;26.30;28.10;;;;;;2266885;61;20407;-65
2023/10/09 01:44:51;0.00;0.00;0.62;0.00;0.00;0.62;1.87;1.23;;;26.30;28.10;;;;;;2264585;61;20974;-65
2023/10/09 01:47:37;0.00;0.00;0.62;0.00;0.00;0.62;2.63;1.63;;;26.30;28.10;;;;;;2269742;61;20379;-65
2023/10/09 01:50:27;0.00;0.00;0.62;0.00;0.00;0.62;2.13;1.47;;;26.30;28.10;;;;;;2266718;61;20359;-66
2023/10/09 01:53:17;0.00;0.00;0.62;0.00;0.00;0.62;2.40;1.53;;;26.30;28.20;;;;;;2264574;61;20407;-65
2023/10/09 01:56:14;0.00;0.00;0.62;0.00;0.00;0.62;2.23;1.30;;;26.30;28.20;;;;;;2267234;61;20364;-65
2023/10/09 01:59:05;0.00;0.00;0.62;0.00;0.00;0.62;1.80;1.10;;;26.30;28.20;;;;;;2263971;61;20356;-64
2023/10/09 02:08:02;0.00;0.00;0.62;0.00;0.00;0.62;2.27;1.20;;;26.30;28.20;;;;;;2264119;61;20778;-65
2023/10/09 02:10:47;0.00;0.00;0.62;0.00;0.00;0.62;2.30;1.47;;;26.30;28.20;;;;;;2267116;61;20391;-66
2023/10/09 02:13:35;0.00;0.00;0.62;0.00;0.00;0.62;2.67;1.23;;;26.30;28.20;;;;;;2264678;61;20930;-65
2023/10/09 02:16:28;0.00;0.00;0.62;0.00;0.00;0.62;2.33;1.53;;;26.30;28.20;;;;;;2264070;61;20356;-67
2023/10/09 02:19:31;0.00;0.00;0.62;0.00;0.00;0.62;2.97;1.73;;;26.30;28.20;;;;;;2266543;61;20908;-66
2023/10/09 02:22:17;0.00;0.00;0.62;0.00;0.00;0.62;2.17;1.20;;;26.30;28.20;;;;;;2264319;61;20374;-66
2023/10/09 02:25:05;0.00;0.00;0.62;0.00;0.00;0.62;2.13;1.37;;;26.30;28.20;;;;;;2264042;61;20392;-65
2023/10/09 02:27:53;0.00;0.00;0.62;0.00;0.00;0.62;2.17;1.63;;;26.30;28.30;;;;;;2264172;61;20391;-66
2023/10/09 02:30:41;0.00;0.00;0.62;0.00;0.00;0.62;3.10;1.67;;;26.30;28.30;;;;;;2264329;61;20824;-66
2023/10/09 02:33:28;0.00;0.00;0.62;0.00;0.00;0.62;2.10;1.27;;;26.30;28.30;;;;;;2264361;61;20355;-65
2023/10/09 02:36:12;0.00;0.00;0.62;0.00;0.00;0.62;2.60;1.67;;;26.30;28.30;;;;;;2264087;61;20935;-66
2023/10/09 02:38:57;0.00;0.00;0.62;0.00;0.00;0.62;2.60;1.50;;;26.30;28.30;;;;;;2263794;61;20371;-66
2023/10/09 02:41:49;0.00;0.00;0.62;0.00;0.00;0.62;3.10;1.70;;;26.30;28.30;;;;;;2266768;61;20379;-66
2023/10/09 02:44:39;0.00;0.00;0.62;0.00;0.00;0.62;2.77;1.57;;;26.20;28.20;;;;;;2264234;61;20384;-67
2023/10/09 02:47:37;0.00;0.00;0.62;0.00;0.00;0.62;1.83;1.40;;;26.30;28.30;;;;;;2264440;61;20363;-66
2023/10/09 02:50:28;0.00;0.00;0.62;0.00;0.00;0.62;2.47;1.40;;;26.30;28.30;;;;;;2264441;61;20414;-65
2023/10/09 02:53:19;0.00;0.00;0.62;0.00;0.00;0.62;1.90;1.40;;;26.30;28.30;;;;;;2266545;61;20380;-65
2023/10/09 02:56:12;0.00;0.00;0.62;0.00;0.00;0.62;3.43;1.53;;;26.30;28.40;;;;;;2266968;61;20411;-65
2023/10/09 02:59:05;0.00;0.00;0.62;0.00;0.00;0.62;2.50;1.50;;;26.30;28.40;;;;;;2263902;61;20368;-66
2023/10/09 03:01:52;0.00;0.00;0.62;0.00;0.00;0.62;2.40;1.57;;;26.20;28.30;;;;;;2266949;61;20924;-66
2023/10/09 03:04:39;0.00;0.00;0.62;0.00;0.00;0.62;2.30;1.50;;;26.20;28.30;;;;;;2264308;61;20415;-65
2023/10/09 03:07:25;0.00;0.00;0.62;0.00;0.00;0.62;2.60;1.50;;;26.20;28.40;;;;;;2266622;61;20853;-65
2023/10/09 03:10:10;0.00;0.00;0.62;0.00;0.00;0.62;2.47;1.40;;;26.20;28.40;;;;;;2264047;61;20642;-65
2023/10/09 03:12:54;0.00;0.00;0.62;0.00;0.00;0.62;3.17;1.50;;;26.20;28.40;;;;;;2264338;61;20471;-66
2023/10/09 03:15:40;0.00;0.00;0.62;0.00;0.00;0.62;3.37;1.70;;;26.20;28.40;;;;;;2264445;61;20363;-63
2023/10/09 03:18:25;0.00;0.00;0.62;0.00;0.00;0.62;2.30;1.97;;;26.20;28.40;;;;;;2266594;61;20924;-64
2023/10/09 03:21:10;0.00;0.00;0.62;0.00;0.00;0.62;2.50;1.73;;;26.20;28.40;;;;;;2266646;61;20461;-64
2023/10/09 03:23:56;0.00;0.00;0.62;0.00;0.00;0.62;3.40;1.73;;;26.20;28.40;;;;;;2264362;61;20453;-64
2023/10/09 03:26:41;0.00;0.00;0.62;0.00;0.00;0.62;3.53;1.93;;;26.20;28.50;;;;;;2264355;61;21019;-66
2023/10/09 03:29:27;0.00;0.00;0.62;0.00;0.00;0.62;3.60;2.13;;;26.20;28.50;;;;;;2266319;61;20364;-65
2023/10/09 03:32:12;0.00;0.00;0.62;0.00;0.00;0.62;1.97;1.23;;;26.20;28.50;;;;;;2263852;61;20865;-66
2023/10/09 03:34:59;0.00;0.00;0.62;0.00;0.00;0.62;2.90;2.07;;;26.20;28.50;;;;;;2264657;61;20367;-65
2023/10/09 03:37:44;0.00;0.00;0.62;0.00;0.00;0.62;3.40;1.80;;;26.20;28.50;;;;;;2266271;61;20803;-66
2023/10/09 03:40:31;0.00;0.00;0.62;0.00;0.00;0.62;2.73;1.93;;;26.20;28.50;;;;;;2264798;61;20510;-65
2023/10/09 03:43:16;0.00;0.00;0.62;0.00;0.00;0.62;2.80;1.80;;;26.20;28.50;;;;;;2264639;61;20364;-66
2023/10/09 03:46:03;0.00;0.00;0.62;0.00;0.00;0.62;2.80;1.77;;;26.20;28.80;;;;;;2265108;61;20372;-65
2023/10/09 03:48:48;0.00;0.00;0.62;0.00;0.00;0.62;4.13;2.17;;;26.20;28.60;;;;;;2264673;61;20355;-65
2023/10/09 03:51:32;0.00;0.00;0.62;0.00;0.00;0.62;2.90;1.90;;;26.20;28.60;;;;;;2264748;61;20434;-66
2023/10/09 03:54:20;0.00;0.00;0.62;0.00;0.00;0.62;2.30;1.90;;;26.20;28.60;;;;;;2264801;61;20919;-66
2023/10/09 03:57:06;0.00;0.00;0.62;0.00;0.00;0.62;2.80;2.10;;;26.20;28.60;;;;;;2265102;61;20406;-64
2023/10/09 03:59:51;0.00;0.00;0.62;0.00;0.00;0.62;3.03;2.00;;;26.20;28.60;;;;;;2264556;61;20881;-64
2023/10/09 04:02:36;0.00;0.00;0.62;0.00;0.00;0.62;3.60;1.73;;;26.20;28.70;;;;;;2266194;61;20859;-64
2023/10/09 04:05:21;0.00;0.00;0.62;0.00;0.00;0.62;3.27;2.10;;;26.20;28.70;;;;;;2269032;61;20488;-65
2023/10/09 04:08:13;0.00;0.00;0.62;0.00;0.00;0.62;3.20;2.37;;;26.20;28.70;;;;;;2268518;61;20363;-66
2023/10/09 04:11:02;0.00;0.00;0.62;0.00;0.00;0.62;3.30;2.20;;;26.20;28.70;;;;;;2268950;61;20429;-64
2023/10/09 04:13:49;0.00;0.00;0.62;0.00;0.00;0.62;3.20;1.90;;;26.20;28.70;;;;;;2268970;61;20355;-65
2023/10/09 04:16:34;0.00;0.00;0.62;0.00;0.00;0.62;2.53;1.70;;;26.20;28.70;;;;;;2269088;61;20367;-64
2023/10/09 04:19:22;0.00;0.00;0.62;0.00;0.00;0.62;4.60;2.10;;;26.20;28.70;;;;;;2268773;61;20832;-64
2023/10/09 04:22:25;0.00;0.00;0.62;0.00;0.00;0.62;3.07;2.27;;;26.10;28.70;;;;;;2265671;61;20901;-64
2023/10/09 04:25:14;0.00;0.00;0.62;0.00;0.00;0.62;4.33;2.00;;;26.20;28.80;;;;;;2269046;61;20424;-64
2023/10/09 04:28:09;0.00;0.00;0.62;0.00;0.00;0.62;2.87;2.03;;;26.20;28.80;;;;;;2265148;61;20433;-65
2023/10/09 04:30:56;0.00;0.00;0.62;0.00;0.00;0.62;3.10;2.23;;;26.20;28.80;;;;;;2268836;61;20394;-67
2023/10/09 04:33:45;0.00;0.00;0.62;0.00;0.00;0.62;3.00;2.00;;;26.20;28.80;;;;;;2268759;61;20417;-65
2023/10/09 04:36:36;0.00;0.00;0.62;0.00;0.00;0.62;2.57;2.00;;;26.10;28.70;;;;;;2268693;61;20417;-66
2023/10/09 04:42:19;0.00;0.00;0.62;0.00;0.00;0.62;3.77;2.30;;;26.10;28.70;;;;;;2268903;61;20459;-66
2023/10/09 04:47:58;0.00;0.00;0.62;0.00;0.00;0.62;4.57;2.77;;;26.10;28.80;;;;;;2268683;61;20367;-67
2023/10/09 04:51:20;0.00;0.00;0.62;0.00;0.00;0.62;4.23;2.60;;;26.10;28.80;;;;;;2268568;61;20919;-66
2023/10/09 04:54:00;0.00;0.00;0.62;0.00;0.00;0.62;3.70;2.83;;;26.10;28.80;;;;;;2268861;61;20675;-66
2023/10/09 04:56:53;0.00;0.00;0.62;0.00;0.00;0.62;4.00;2.40;;;26.10;28.80;;;;;;2268851;61;20355;-66
2023/10/09 04:59:46;0.00;0.00;0.62;0.00;0.00;0.62;3.80;2.30;;;26.10;28.80;;;;;;2268458;61;20410;-65
2023/10/09 05:02:37;0.00;0.00;0.62;0.00;0.00;0.62;5.00;2.80;;;26.10;28.80;;;;;;2268712;61;20470;-66
2023/10/09 05:14:16;0.00;0.00;0.62;0.00;0.00;0.62;6.23;3.07;;;26.10;28.90;;;;;;2268494;61;20363;-65
2023/10/09 05:17:06;0.00;0.00;0.62;0.00;0.00;0.62;4.93;4.10;;;26.10;28.90;;;;;;2268801;61;21025;-66
2023/10/09 05:20:55;0.00;0.00;0.62;0.00;0.00;0.62;4.80;3.60;;;26.10;28.90;;;;;;2268441;61;20363;-66
2023/10/09 05:23:23;0.00;0.00;0.62;0.00;0.00;0.62;5.80;4.20;;;26.10;28.90;;;;;;2267903;61;20366;-66
2023/10/09 05:26:37;0.00;0.00;0.62;0.00;0.00;0.62;4.50;3.40;;;26.10;29.00;;;;;;2268708;61;20378;-66
2023/10/09 05:32:27;0.00;0.00;0.62;0.00;0.00;0.62;5.40;4.00;;;26.10;29.00;;;;;;2268506;61;20471;-65
2023/10/09 05:35:15;0.00;0.00;0.62;0.00;0.00;0.62;5.43;4.10;;;26.10;29.00;;;;;;2268557;61;20803;-66
2023/10/09 05:38:04;0.00;0.00;0.62;0.00;0.00;0.62;7.10;4.10;;;26.10;29.00;;;;;;2268231;61;20455;-67
2023/10/09 05:40:53;0.00;0.00;0.62;0.00;0.00;0.62;5.90;3.80;;;26.10;29.00;;;;;;2507058;53;20891;-65
2023/10/09 05:45:09;0.00;0.00;0.62;0.00;0.00;0.62;5.90;4.30;;;26.10;29.10;;;;;;2268622;61;20479;-66
2023/10/09 05:47:22;0.00;0.00;0.62;0.00;0.00;0.62;5.23;3.93;;;26.10;29.10;;;;;;2268660;61;20379;-68
2023/10/09 05:53:17;0.00;0.00;0.62;0.00;0.00;0.62;6.30;4.50;;;26.00;29.00;;;;;;2265618;61;20387;-64
2023/10/09 06:03:16;0.00;0.00;0.62;0.00;0.00;0.62;5.93;4.33;;;26.10;29.20;;;;;;2277173;47;20540;-65
2023/10/09 06:17:43;0.00;0.00;0.62;0.00;0.00;0.62;7.03;5.10;;;26.10;29.30;;;;;;2255512;61;20416;-65
2023/10/09 06:21:08;0.00;0.00;0.62;0.00;0.00;0.62;9.17;5.80;;;26.00;29.30;;;;;;2268430;61;20359;-65
2023/10/09 06:35:18;0.00;0.00;0.62;0.00;0.00;0.62;10.80;6.03;;;26.00;29.30;;;;;;2268354;61;20355;-66
2023/10/09 06:38:23;0.00;0.00;0.62;0.00;0.00;0.62;8.30;5.57;;;26.10;29.40;;;;;;2268134;61;20479;-67
2023/10/09 06:44:52;0.00;0.00;0.62;0.00;0.00;0.62;8.50;6.07;;;26.00;29.40;;;;;;2264114;61;20391;-66
2023/10/09 06:47:18;0.00;0.00;0.62;0.00;0.00;0.62;8.80;5.80;;;26.00;29.40;;;;;;2263122;61;20360;-66
2023/10/09 06:56:05;0.00;0.00;0.62;0.00;0.00;0.62;7.63;5.20;;;26.00;29.40;;;;;;2264177;61;20911;-66
2023/10/09 06:58:54;0.00;0.00;0.62;0.00;0.00;0.62;5.10;4.43;;;26.00;29.40;;;;;;2263562;61;20925;-65
2023/10/09 07:07:20;0.00;0.00;0.62;0.00;0.00;0.62;7.47;4.90;;;26.00;29.50;;;;;;2268287;61;20363;-66
2023/10/09 07:13:11;0.00;0.00;0.62;0.00;0.00;0.62;6.43;5.30;;;26.00;29.50;;;;;;2264358;61;20448;-67
2023/10/09 07:19:09;0.00;0.00;0.62;0.00;0.00;0.62;5.27;4.30;;;26.00;29.50;;;;;;2264511;61;20440;-66
2023/10/09 07:21:55;0.00;0.00;0.62;0.00;0.00;0.62;6.20;4.90;;;26.00;29.50;;;;;;2267190;61;20379;-70
2023/10/09 07:24:43;0.00;0.00;0.62;0.00;0.00;0.62;7.30;5.13;;;26.00;29.60;;;;;;2264652;61;20418;-67
2023/10/09 07:30:57;0.00;0.00;0.62;0.00;0.00;0.62;9.30;5.43;;;26.00;29.60;;;;;;2255717;61;20415;-66
2023/10/09 07:33:56;0.00;0.00;0.62;0.00;0.00;0.62;8.70;5.87;;;26.00;29.60;;;;;;2264858;61;20356;-67
2023/10/09 07:36:47;0.00;0.00;0.62;0.00;0.00;0.62;9.30;6.40;;;26.00;29.60;;;;;;2264858;61;20776;-68
2023/10/09 07:39:36;0.00;0.00;0.62;0.00;0.00;0.62;7.10;5.70;;;26.00;29.60;;;;;;2264602;61;20364;-66
2023/10/09 07:42:43;0.00;0.00;0.62;0.00;0.00;0.62;6.50;5.80;;;26.00;29.70;;;;;;2264833;61;20384;-67
2023/10/09 07:48:14;0.00;0.00;0.62;0.00;0.00;0.62;8.33;7.00;;;26.00;29.70;;;;;;2264191;61;20448;-68
2023/10/09 07:50:59;0.00;0.00;0.62;0.00;0.00;0.62;9.20;7.50;;;26.00;29.70;;;;;;2267159;61;20379;-66
2023/10/09 07:53:44;0.00;0.00;0.62;0.00;0.00;0.62;10.63;6.97;;;26.00;29.70;;;;;;2264643;61;20506;-67
2023/10/09 07:56:38;0.00;0.00;0.62;0.00;0.00;0.62;8.77;7.47;;;26.00;29.70;;;;;;2264740;61;20383;-66
2023/10/09 07:59:23;0.00;0.00;0.62;0.00;0.00;0.62;9.13;7.30;;;26.00;29.80;;;;;;2264533;61;20437;-67
2023/10/09 08:05:06;0.00;0.00;0.62;0.00;0.00;0.62;8.17;6.30;;;26.00;29.80;;;;;;2270333;61;20812;-67
2023/10/09 08:07:59;0.00;0.00;0.62;0.00;0.00;0.62;8.00;6.83;;;26.00;29.80;;;;;;2268663;61;20417;-68
2023/10/09 08:11:41;0.00;0.00;0.62;0.00;0.00;0.62;10.20;6.80;;;26.00;29.80;;;;;;2265680;61;20358;-66
2023/10/09 08:13:49;0.00;0.00;0.62;0.00;0.00;0.62;9.87;6.80;;;26.00;29.90;;;;;;2268559;61;20367;-67
2023/10/09 08:16:37;0.00;0.00;0.62;0.00;0.00;0.62;9.80;7.17;;;26.00;29.90;;;;;;2268865;61;20367;-67
2023/10/09 08:25:31;0.00;0.00;0.62;0.00;0.00;0.62;8.20;6.60;;;26.00;29.90;;;;;;2265232;61;20824;-66
2023/10/09 08:31:45;0.00;0.00;0.62;0.00;0.00;0.62;8.57;6.60;;;26.00;30.00;;;;;;2268675;61;20382;-66
2023/10/09 08:34:35;0.00;0.00;0.62;0.00;0.00;0.62;5.93;5.33;;;26.00;30.00;;;;;;2268730;61;20374;-67
2023/10/09 08:37:25;0.00;0.00;0.62;0.00;0.00;0.62;7.80;6.50;;;26.00;30.00;;;;;;2268624;61;20818;-67
2023/10/09 08:40:13;0.00;0.00;0.62;0.00;0.00;0.62;7.73;6.33;;;26.00;30.00;;;;;;2268491;61;20359;-66
2023/10/09 08:43:08;0.00;0.00;0.62;0.00;0.00;0.62;8.07;6.20;;;26.00;30.10;;;;;;2268832;61;20391;-66
2023/10/09 08:46:00;0.00;0.00;0.62;0.00;0.00;0.62;7.90;6.50;;;26.00;30.10;;;;;;2268654;61;20375;-66
2023/10/09 08:48:48;0.00;0.00;0.62;0.00;0.00;0.62;7.60;6.40;;;26.00;30.20;;;;;;2268042;61;20363;-65
2023/10/09 08:51:35;0.00;0.00;0.62;0.00;0.00;0.62;7.47;6.00;;;26.00;30.20;;;;;;2265635;61;20419;-67
2023/10/09 08:54:19;0.00;0.00;0.62;0.00;0.00;0.62;7.20;6.00;;;26.00;30.20;;;;;;2265305;61;20413;-66
2023/10/09 08:57:09;0.00;0.00;0.62;0.00;0.00;0.62;8.77;6.13;;;26.00;30.20;;;;;;2268866;61;20375;-67
2023/10/09 08:59:54;0.00;0.00;0.62;0.00;0.00;0.62;8.47;6.17;;;26.00;30.20;;;;;;2268340;61;20378;-66
2023/10/09 09:02:38;0.00;0.00;0.62;0.00;0.00;0.62;7.90;6.43;;;26.00;30.30;;;;;;2268493;61;20426;-70
2023/10/09 09:05:28;0.00;0.00;0.62;0.00;0.00;0.62;8.90;6.80;;;26.00;30.40;;;;;;2268549;61;20387;-66
2023/10/09 09:08:24;0.00;0.00;0.62;0.00;0.00;0.62;7.13;5.93;;;26.00;30.40;;;;;;2268452;61;20367;-66
2023/10/09 09:11:13;0.00;0.00;0.62;0.00;0.00;0.62;7.97;6.57;;;26.00;31.10;;;;;;2362982;39;20366;31
2023/10/09 09:14:04;0.00;0.00;0.62;0.00;0.00;0.62;7.17;6.00;;;26.00;30.50;;;;;;2254216;61;20811;-66
2023/10/09 09:16:49;0.00;0.00;0.62;0.00;0.00;0.62;8.33;6.30;;;26.00;30.50;;;;;;2252298;61;20418;-65
2023/10/09 09:19:37;0.00;0.00;0.62;0.00;0.00;0.62;7.73;5.73;;;26.00;30.50;;;;;;2252311;61;20358;-66
2023/10/09 09:22:26;0.00;0.00;0.62;0.00;0.00;0.62;8.53;6.23;;;26.00;30.60;;;;;;2255223;61;20381;-66
2023/10/09 09:25:11;0.00;0.00;0.62;0.00;0.00;0.62;8.30;6.60;;;26.00;30.70;;;;;;2256324;61;20434;-66
2023/10/09 09:27:59;0.00;0.00;0.62;0.00;0.00;0.62;7.33;6.30;;;25.90;30.60;;;;;;2256462;61;20394;-64
2023/10/09 09:30:43;0.00;0.00;0.62;0.00;0.00;0.62;8.47;6.07;;;26.00;30.70;;;;;;2256635;61;20451;-66
2023/10/09 09:36:13;0.00;0.00;0.62;0.00;0.00;0.62;6.90;6.17;;;26.00;30.70;;;;;;2256514;61;20422;-64
2023/10/09 09:39:01;0.00;0.00;0.62;0.00;0.00;0.62;8.03;6.40;;;26.00;30.70;;;;;;2255987;61;20377;-64
2023/10/09 09:41:46;0.00;0.00;0.62;0.00;0.00;0.62;6.30;5.60;;;26.00;30.70;;;;;;2256673;61;20406;-65
2023/10/09 09:44:33;0.00;0.00;0.62;0.00;0.00;0.62;10.50;6.03;;;26.00;30.70;;;;;;2256270;61;20478;-65
2023/10/09 09:47:27;0.00;0.00;0.62;0.00;0.00;0.62;8.50;6.43;;;26.00;30.70;;;;;;2256209;61;20929;-66
2023/10/09 09:50:24;0.00;0.00;0.62;0.00;0.00;0.62;8.53;6.03;;;26.00;30.70;;;;;;2255934;61;20401;-66
2023/10/09 09:53:16;0.00;0.00;0.62;0.00;0.00;0.62;9.60;6.10;;;26.00;30.70;;;;;;2256374;61;20366;-66
2023/10/09 09:56:04;0.00;0.00;0.62;0.00;0.00;0.62;6.70;5.57;;;26.00;30.70;;;;;;2253153;61;20429;-66
2023/10/09 09:58:53;0.00;0.00;0.62;0.00;0.00;0.62;7.60;6.07;;;26.00;30.70;;;;;;2255837;61;20365;-67
2023/10/09 10:01:40;0.00;0.00;0.62;0.00;0.00;0.62;7.07;5.67;;;26.00;30.70;;;;;;2256161;61;20926;-66
2023/10/09 10:04:29;0.00;0.00;0.62;0.00;0.00;0.62;7.20;5.93;;;26.00;30.70;;;;;;2256340;61;20477;-65
2023/10/09 10:07:16;0.00;0.00;0.62;0.00;0.00;0.62;6.37;5.70;;;26.00;30.70;;;;;;2256369;61;20369;-65
2023/10/09 10:10:08;0.00;0.00;0.62;0.00;0.00;0.62;7.27;5.33;;;26.00;30.70;;;;;;2255992;61;20373;-65
2023/10/09 10:13:01;0.00;0.00;0.62;0.00;0.00;0.62;5.87;5.27;;;26.00;30.70;;;;;;2255819;61;20444;-66
2023/10/09 10:16:13;0.00;0.00;0.62;0.00;0.00;0.62;6.27;5.40;;;26.00;30.70;;;;;;2255939;61;20784;-66
2023/10/09 10:22:01;0.00;0.00;0.62;0.00;0.00;0.62;7.40;5.70;;;26.00;30.70;;;;;;2256520;61;20969;-66
2023/10/09 10:24:52;0.00;0.00;0.62;0.00;0.00;0.62;6.50;5.50;;;26.00;30.70;;;;;;2255713;61;20482;-66
2023/10/09 10:28:00;0.00;0.00;0.62;0.00;0.00;0.62;7.50;6.30;;;26.00;30.70;;;;;;2256600;61;20381;-67
2023/10/09 10:30:51;0.00;0.00;0.62;0.00;0.00;0.62;6.17;5.33;;;26.00;30.70;;;;;;2252810;61;20846;-66
2023/10/09 10:34:10;0.00;0.00;0.62;0.00;0.00;0.62;10.63;6.10;;;26.00;30.70;;;;;;2256434;61;20402;-66
2023/10/09 10:37:01;0.00;0.00;0.62;0.00;0.00;0.62;7.90;5.83;;;26.00;30.70;;;;;;2256610;61;20370;-66
2023/10/09 10:39:50;0.00;0.00;0.62;0.00;0.00;0.62;7.87;5.70;;;26.00;30.70;;;;;;2258755;61;20404;-65
2023/10/09 10:42:35;0.00;0.00;0.62;0.00;0.00;0.62;9.10;6.20;;;26.00;30.70;;;;;;2260456;61;20435;-67
2023/10/09 10:45:34;0.00;0.00;0.62;0.00;0.00;0.62;8.97;6.57;;;26.00;30.70;;;;;;2260285;61;20947;-65
2023/10/09 10:48:37;0.00;0.00;0.62;0.00;0.00;0.62;7.83;6.27;;;26.00;30.80;;;;;;2256883;61;20419;-66
2023/10/09 10:51:21;0.00;0.00;0.62;0.00;0.00;0.62;7.33;6.37;;;26.00;30.80;;;;;;2260388;61;20388;-67
2023/10/09 10:57:52;0.00;0.00;0.62;0.00;0.00;0.62;7.40;5.80;;;26.00;30.90;;;;;;2260461;61;20364;-66
2023/10/09 11:03:56;0.00;0.00;0.62;0.00;0.00;0.62;6.57;5.87;;;26.00;30.90;;;;;;2260544;61;20364;-66
2023/10/09 11:06:43;0.00;0.00;0.62;0.00;0.00;0.62;8.57;6.00;;;26.00;31.00;;;;;;2259922;61;20417;-66
2023/10/09 11:09:36;0.00;0.00;0.62;0.00;0.00;0.62;6.50;5.33;;;26.00;31.00;;;;;;2259935;61;20787;-66
2023/10/09 11:12:22;0.00;0.00;0.62;0.00;0.00;0.62;7.03;6.33;;;26.00;31.00;;;;;;2260243;61;20439;-65
2023/10/09 11:15:29;0.00;0.00;0.62;0.00;0.00;0.62;8.73;5.40;;;26.00;31.10;;;;;;2259867;61;20429;-65
2023/10/09 11:18:24;0.00;0.00;0.62;0.00;0.00;0.62;7.90;6.23;;;26.00;31.10;;;;;;2260009;61;20891;-65
2023/10/09 11:23:58;0.00;0.00;0.62;0.00;0.00;0.62;7.77;5.60;;;26.00;31.20;;;;;;2260263;61;20484;-66
2023/10/09 11:26:53;0.00;0.00;0.62;0.00;0.00;0.62;6.63;5.57;;;26.00;31.20;;;;;;2260447;61;20369;-66
2023/10/09 11:32:38;0.00;0.00;0.62;0.00;0.00;0.62;6.10;5.20;;;26.00;31.30;;;;;;2260361;61;20784;-67
2023/10/09 11:35:34;0.00;0.00;0.62;0.00;0.00;0.62;6.67;5.10;;;26.00;31.30;;;;;;2260373;61;20382;-65
2023/10/09 11:38:23;0.00;0.00;0.62;0.00;0.00;0.62;6.97;5.23;;;26.00;31.30;;;;;;2259980;61;20357;-65
2023/10/09 11:41:19;0.00;0.00;0.62;0.00;0.00;0.62;5.40;4.63;;;26.00;31.30;;;;;;2280378;40;20843;-66
2023/10/09 11:44:04;0.00;0.00;0.62;0.00;0.00;0.62;6.40;4.80;;;26.00;31.30;;;;;;2276558;60;20905;-65
2023/10/09 11:46:58;0.00;0.00;0.62;0.00;0.00;0.62;8.17;5.43;;;26.00;31.30;;;;;;2273304;60;20500;-66
2023/10/09 11:49:56;0.00;0.00;0.62;0.00;0.00;0.62;6.87;5.03;;;26.00;31.40;;;;;;2276257;60;20357;-65
2023/10/09 11:53:08;0.00;0.00;0.62;0.00;0.00;0.62;5.60;4.67;;;26.00;31.40;;;;;;2276032;60;20422;-65
2023/10/09 11:55:54;0.00;0.00;0.62;0.00;0.00;0.62;5.47;4.70;;;26.00;31.40;;;;;;2276600;60;20349;-66
2023/10/09 11:58:40;0.00;0.00;0.62;0.00;0.00;0.62;6.53;4.97;;;26.00;32.10;;;;;;2275957;60;20397;-65
2023/10/09 12:01:26;0.00;0.00;0.62;0.00;0.00;0.62;5.70;4.70;;;26.00;31.50;;;;;;2276692;60;20428;-67
2023/10/09 12:04:12;0.00;0.00;0.62;0.00;0.00;0.62;5.10;4.60;;;26.00;31.50;;;;;;2273912;60;20912;-66
2023/10/09 12:07:06;0.00;0.00;0.62;0.00;0.00;0.62;6.97;5.20;;;26.00;31.50;;;;;;2273688;60;20393;-66
2023/10/09 12:09:56;0.00;0.00;0.62;0.00;0.00;0.62;5.73;4.67;;;26.00;31.50;;;;;;2276775;60;20453;-66
2023/10/09 12:12:46;0.00;0.00;0.62;0.00;0.00;0.62;5.10;4.20;;;26.00;31.50;;;;;;2277189;60;20921;-66
2023/10/09 12:15:36;0.00;0.00;0.62;0.00;0.00;0.62;7.33;4.83;;;26.00;31.50;;;;;;2276928;60;20388;-67
2023/10/09 12:18:23;0.00;0.00;0.62;0.00;0.00;0.62;5.53;4.87;;;26.00;31.50;;;;;;2276774;60;20442;-66
2023/10/09 12:21:15;0.00;0.00;0.62;0.00;0.00;0.62;6.50;5.40;;;26.00;31.60;;;;;;2277125;60;20519;-67
2023/10/09 12:23:59;0.00;0.00;0.62;0.00;0.00;0.62;6.30;5.07;;;26.00;31.60;;;;;;2277129;60;20412;-66
2023/10/09 12:26:45;0.00;0.00;0.62;0.00;0.00;0.62;5.93;4.93;;;26.00;31.60;;;;;;2277164;60;20415;-66
2023/10/09 12:29:32;0.00;0.00;0.62;0.00;0.00;0.62;6.60;5.50;;;26.00;31.70;;;;;;2276528;60;20503;-66
2023/10/09 12:32:19;0.00;0.00;0.62;0.00;0.00;0.62;5.70;4.90;;;26.00;31.70;;;;;;2276992;60;20395;-66
2023/10/09 12:35:17;0.00;0.00;0.62;0.00;0.00;0.62;5.93;4.97;;;26.00;31.70;;;;;;2273800;60;20935;-67
2023/10/09 12:38:02;0.00;0.00;0.62;0.00;0.00;0.62;6.33;5.03;;;26.00;31.70;;;;;;2276474;60;20399;-66
2023/10/09 12:40:53;0.00;0.00;0.62;0.00;0.00;0.62;5.67;4.70;;;26.00;31.70;;;;;;2714269;45;20354;-66
2023/10/09 12:43:38;0.00;0.00;0.62;0.00;0.00;0.62;6.13;4.93;;;26.00;31.70;;;;;;2272927;61;20440;-66
2023/10/09 12:46:25;0.00;0.00;0.62;0.00;0.00;0.62;5.27;4.50;;;26.00;31.70;;;;;;2273063;61;20355;-66
2023/10/09 12:49:10;0.00;0.00;0.62;0.00;0.00;0.62;5.47;4.80;;;26.10;31.80;;;;;;2272565;61;20358;-66
2023/10/09 12:51:57;0.00;0.00;0.62;0.00;0.00;0.62;6.03;4.50;;;26.00;31.70;;;;;;2272740;61;20429;-66
2023/10/09 12:54:43;0.00;0.00;0.62;0.00;0.00;0.62;6.00;5.27;;;26.00;31.80;;;;;;2272969;61;20358;-66
2023/10/09 12:57:28;0.00;0.00;0.62;0.00;0.00;0.62;5.40;4.57;;;26.00;31.80;;;;;;2269741;61;20981;-66
2023/10/09 13:00:13;0.00;0.00;0.62;0.00;0.00;0.62;5.40;4.73;;;26.00;31.80;;;;;;2272339;61;20358;-66
2023/10/09 13:03:13;0.00;0.00;0.62;0.00;0.00;0.62;5.50;4.50;;;26.00;31.80;;;;;;2272916;61;20417;-65
2023/10/09 13:05:59;0.00;0.00;0.62;0.00;0.00;0.62;5.33;4.30;;;26.00;31.90;;;;;;2272729;61;20482;-66
2023/10/09 13:08:45;0.00;0.00;0.62;0.00;0.00;0.62;4.83;4.33;;;26.00;31.90;;;;;;2269186;61;20450;-67
2023/10/09 13:11:30;0.00;0.00;0.62;0.00;0.00;0.62;5.87;4.40;;;26.00;31.90;;;;;;2272896;60;20374;-64